• Join FlightAware (Why Join?)
  • Login
  • US Flag 
12:33PM EDT


 

Airport Tracker/Info


-or-


 

Live Flight TrackerFlight Track Log ✈ N804JJ ✈ 24-Sep-2013 ✈ KRYY - KHUT

Flight Track Log - Related Links

Times and Time Zones

All times are in EDT time to prevent confusion due to time zone crossing. See the N804JJ flight status page for this flight to view local times or setup timezone preferences in your user account.

Time Position Orientation Groundspeed Altitude Reporting Facility
EDT Latitude Longitude Course Direction KTS MPH feet Rate Location/Type
11:34AM 34.0333 -84.5333 309° West 218 251 3,600  Level Atlanta TRACON
11:36AM 34.1000 -84.6333 309° West 263 303 7,000 1,080 Climbing Atlanta TRACON
11:37AM 34.0667 -84.7167 244° Southwest 281 323 7,000  Level Atlanta TRACON
11:38AM 34.0167 -84.8000 234° Southwest 288 331 7,000 1,020 Level Atlanta TRACON
11:39AM 33.9667 -84.8667 228° Southwest 279 321 9,100 1,500 Climbing Atlanta TRACON
11:40AM 33.9167 -84.9333 228° Southwest 306 352 10,100 1,440 Climbing Atlanta TRACON
11:41AM 33.8317 -85.0642 232° Southwest 331 381 12,700 1,680 Climbing Atlanta Center
11:42AM 33.7911 -85.1636 244° Southwest 336 387 14,300 1,860 Climbing Atlanta Center
11:43AM 33.7569 -85.2681 249° West 337 388 16,500 1,740 Climbing Atlanta Center
11:44AM 33.7369 -85.3703 257° West 342 394 17,800 1,800 Climbing Atlanta Center
11:45AM 33.7794 -85.4833 294° West 354 407 20,100 2,040 Climbing Atlanta Center
11:46AM 33.8283 -85.5992 297° West 367 422 21,900 1,560 Climbing Atlanta Center
11:47AM 33.8642 -85.7125 291° West 372 428 23,300 1,320 Climbing Atlanta Center
11:48AM 33.8919 -85.8331 286° West 383 441 24,600 1,200 Climbing Atlanta Center
11:49AM 33.9358 -85.9567 293° West 383 441 25,700 1,140 Climbing Atlanta Center
11:50AM 33.9800 -86.0756 294° West 389 448 26,900 1,140 Climbing Atlanta Center
11:51AM 34.0300 -86.1969 296° West 396 456 28,000 1,080 Climbing Atlanta Center
11:52AM 34.0778 -86.3211 295° West 402 463 29,100 960 Climbing Atlanta Center
11:53AM 34.1278 -86.4428 296° West 402 463 30,000 1,020 Climbing Atlanta Center
11:54AM 34.1775 -86.5647 296° West 402 463 31,200 1,320 Climbing Atlanta Center
11:55AM 34.2242 -86.6694 298° West 402 463 32,600 1,140 Climbing Memphis Center
11:56AM 34.2675 -86.7883 294° West 402 463 33,400 900 Climbing Memphis Center
11:57AM 34.3103 -86.8997 295° West 391 450 34,400 960 Climbing Memphis Center
11:58AM 34.3614 -87.0133 299° West 376 433 35,400 720 Climbing Memphis Center
11:59AM 34.4186 -87.1244 302° West 389 448 35,900 240 Climbing Memphis Center
12:00PM 34.4639 -87.2639 292° West 409 471 35,900 60 Level Memphis Center
12:01PM 34.5044 -87.3908 291° West 410 472 36,100  Climbing Memphis Center
12:02PM 34.5594 -87.5150 298° West 410 472 36,000 -60 Descending Memphis Center
12:03PM 34.6208 -87.6392 301° West 416 479 36,000 480 Level Memphis Center
12:04PM 34.6669 -87.7511 297° West 421 484 37,000 900 Climbing Memphis Center
12:05PM 34.7194 -87.8683 299° West 415 478 37,800 480 Climbing Memphis Center
12:06PM 34.7761 -87.9881 300° West 407 468 38,000 60 Climbing Memphis Center
12:07PM 34.8222 -88.1108 295° West 402 463 38,000  Level Memphis Center
12:08PM 34.8661 -88.2361 293° West 402 463 38,000  Level Memphis Center
12:09PM 34.8953 -88.3619 286° West 402 463 38,000  Level Memphis Center
12:10PM 34.9431 -88.4850 295° West 395 455 38,000  Level Memphis Center
12:11PM 35.0011 -88.6078 300° West 390 449 38,000  Level Memphis Center
12:12PM 35.0508 -88.7311 296° West 390 449 38,000  Level Memphis Center
12:13PM 35.1025 -88.8469 299° West 390 449 38,000  Level Memphis Center
12:14PM 35.1517 -88.9678 296° West 390 449 38,000  Level Memphis Center
12:15PM 35.1969 -89.0867 295° West 390 449 38,000  Level Memphis Center
12:16PM 35.2439 -89.2103 295° West 395 455 38,000  Level Memphis Center
12:17PM 35.2908 -89.3344 295° West 395 455 38,000 -420 Level Memphis Center
12:18PM 35.3378 -89.4636 294° West 405 466 37,200 -480 Descending Memphis Center
12:19PM 35.3867 -89.5956 294° West 423 487 37,100 -120 Descending Memphis Center
12:20PM 35.4356 -89.7250 295° West 423 487 37,000 -60 Descending Memphis Center
12:21PM 35.4861 -89.8572 295° West 423 487 37,000  Level Memphis Center
12:22PM 35.5325 -89.9897 293° West 423 487 37,000  Level Memphis Center
12:23PM 35.5808 -90.1222 294° West 416 479 37,000  Level Memphis Center
12:24PM 35.6311 -90.2547 295° West 416 479 37,000 -180 Level Memphis Center
12:25PM 35.6728 -90.3725 294° West 416 479 36,700 -540 Descending Memphis Center
12:26PM 35.7206 -90.5258 291° West 421 484 36,000 -300 Descending Memphis Center
12:27PM 35.7703 -90.6642 294° West 432 497 36,100  Climbing Memphis Center
12:28PM 35.8222 -90.8025 295° West 437 503 36,000 -60 Descending Memphis Center
12:29PM 35.8694 -90.9386 293° West 437 503 36,000  Level Memphis Center
12:30PM 35.9128 -91.0669 293° West 437 503 36,100  Climbing Memphis Center
12:31PM 35.9639 -91.2033 295° West 437 503 36,100 -60 Level Memphis Center
12:32PM 36.0108 -91.3372 293° West 437 503 36,000  Descending Memphis Center
12:33PM 36.0556 -91.4714 292° West 432 497 36,100  Climbing Memphis Center
12:34PM 36.1025 -91.6056 293° West 427 491 36,000  Descending Memphis Center
12:35PM 36.1367 -91.7114 292° West 427 491 36,100  Climbing Memphis Center
12:36PM 36.1936 -91.8539 296° West 422 486 36,100  Level Memphis Center
12:37PM 36.2417 -91.9911 294° West 422 486 36,100 -60 Level Memphis Center
12:38PM 36.2836 -92.1258 291° West 422 486 36,000  Descending Memphis Center
12:39PM 36.3297 -92.2581 293° West 422 486 36,100  Climbing Memphis Center
12:40PM 36.3775 -92.3958 293° West 422 486 36,000  Descending Memphis Center
12:41PM 36.4233 -92.5286 293° West 428 493 36,100  Climbing Memphis Center
12:42PM 36.4747 -92.6822 293° West 428 493 36,000 -60 Descending Memphis Center
12:45PM 36.5772 -92.9847 293° West 426 490 36,000  Level Kansas City Center
12:46PM 36.6311 -93.1497 292° West 428 493 36,000  Level Kansas City Center
12:47PM 36.6753 -93.2875 292° West 429 494 36,100  Climbing Kansas City Center
12:48PM 36.7219 -93.4275 293° West 434 499 36,100  Level Kansas City Center
12:49PM 36.7664 -93.5633 292° West 432 497 36,100  Level Kansas City Center
12:50PM 36.8103 -93.7017 292° West 430 495 36,100 -60 Level Kansas City Center
12:51PM 36.8653 -93.8678 293° West 428 493 36,000  Descending Kansas City Center
12:52PM 36.9106 -94.0069 292° West 430 495 36,100  Climbing Kansas City Center
12:53PM 36.9564 -94.1447 293° West 430 495 36,000 -60 Descending Kansas City Center
12:54PM 36.9986 -94.2828 291° West 429 494 36,000  Level Kansas City Center
12:55PM 37.0419 -94.4197 292° West 427 491 36,100  Climbing Kansas City Center
12:56PM 37.0850 -94.5572 291° West 426 490 36,100 -60 Level Kansas City Center
12:57PM 37.1375 -94.7244 292° West 429 494 36,000 -60 Descending Kansas City Center
12:58PM 37.1814 -94.8658 291° West 434 499 36,000 -540 Level Kansas City Center
12:59PM 37.2261 -95.0061 292° West 435 501 34,900 -780 Descending Kansas City Center
01:00PM 37.2706 -95.1497 291° West 440 506 34,400 -360 Descending Kansas City Center
01:01PM 37.3128 -95.2903 291° West 437 503 34,200 -240 Descending Kansas City Center
01:02PM 37.3550 -95.4281 291° West 430 495 34,000 -300 Descending Kansas City Center
01:03PM 37.4064 -95.6017 290° West 435 501 33,600 -900 Descending Kansas City Center
01:04PM 37.4508 -95.7364 293° West 423 487 32,200 -1,020 Descending Kansas City Center
01:05PM 37.4889 -95.8856 288° West 446 513 31,600 -780 Descending Kansas City Center
01:06PM 37.5306 -96.0244 291° West 430 495 30,600 -1,440 Descending Kansas City Center
01:07PM 37.5728 -96.1658 291° West 430 495 28,700 -1,560 Descending Kansas City Center
01:08PM 37.6156 -96.3108 290° West 438 504 27,400 -1,020 Descending Kansas City Center
01:09PM 37.6675 -96.4686 293° West 430 495 26,600 -960 Descending Kansas City Center
01:10PM 37.6833 -96.5242 290° West 419 482 26,100 -1,440 Descending Kansas City Center
01:10PM 37.6961 -96.5672 291° West 419 482 25,600 -1,620 Descending Kansas City Center
01:10PM 37.7089 -96.6089 291° West 425 489 25,100 -1,620 Descending Kansas City Center
01:11PM 37.7364 -96.7089 289° West 425 489 24,000 -1,500 Descending Kansas City Center
01:11PM 37.7500 -96.7492 293° West 427 491 23,600 -1,320 Descending Kansas City Center
01:12PM 37.7756 -96.8453 289° West 420 483 22,700 -1,500 Descending Kansas City Center
01:13PM 37.7886 -96.8847 293° West 414 476 22,100 -2,160 Descending Kansas City Center
01:14PM 37.8286 -97.0175 291° West 406 467 19,700 -2,280 Descending Kansas City Center
01:14PM 37.8536 -97.1164 288° West 385 443 18,400 -2,160 Descending Kansas City Center
01:15PM 37.8703 -97.1692 292° West 382 440 17,500 -2,520 Descending Kansas City Center
01:15PM 37.8875 -97.2464 286° West 353 406 15,600 -2,820 Descending Kansas City Center
01:16PM 37.8983 -97.2850 290° West 353 406 14,600 -3,060 Descending Kansas City Center
01:16PM 37.9089 -97.3569 281° West 321 369 12,500 -3,000 Descending Kansas City Center
01:17PM 37.9153 -97.3961 282° West 325 374 11,500 -2,880 Descending Kansas City Center
01:17PM 37.9206 -97.4558 276° West 294 338 9,900 -2,940 Descending Kansas City Center
01:18PM 37.9244 -97.5083 275° West 288 331 8,500 -2,640 Descending Kansas City Center
01:18PM 37.9294 -97.5686 276° West 277 319 7,000 -2,340 Descending Kansas City Center
01:19PM 37.9331 -97.6025 278° West 272 313 6,100 -2,340 Descending Kansas City Center
01:19PM 37.9408 -97.6439 283° West 256 295 4,900 -1,860 Descending Kansas City Center
01:20PM 37.9508 -97.6953 284° West 252 290 4,200 -1,020 Descending Kansas City Center
01:20PM 37.9561 -97.7397 279° West 229 264 3,800 -720 Descending Kansas City Center
01:21PM 37.9617 -97.7706 283° West 224 258 3,500 -600 Descending Kansas City Center
01:21PM 37.9692 -97.8094 284° West 201 231 3,200 -420 Descending Kansas City Center
01:22PM 37.9783 -97.8386 292° West 211 243 3,100 -540 Descending Kansas City Center
01:22PM 38.0008 -97.8578 326° Northwest 172 198 2,700 -900 Descending Kansas City Center
01:23PM 38.0183 -97.8608 352° North 179 206 2,200 -900 Descending Kansas City Center
01:23PM 38.0433 -97.8619 358° North 138 159 1,800 -600 Descending Kansas City Center
01:24PM 38.0594 -97.8628 358° North 154 177 1,600 -420 Descending Kansas City Center
01:26PM 38.0655 -97.8606 North  Level Estimated
01:33PM 38.0655 -97.8606 North  Level Estimated